Time;durP1;ratioP1;P1;durP2;ratioP2;P2;SDS_P1;SDS_P2;PMS_P1;PMS_P2;Temp;Humidity;BMP_temperature;BMP_pressure;BME280_temperature;BME280_humidity;BME280_pressure;Samples;Min_cycle;Max_cycle;Signal;HPM_P1;HPM_P2
2022/08/19 00:02:16;;;;;;;7.22;4.53;;;18.80;99.90;;;;;;5033226;28;20057;-86
2022/08/19 00:04:47;;;;;;;3.47;3.20;;;18.80;99.90;;;;;;5057356;28;20025;-86
2022/08/19 00:07:22;;;;;;;3.40;3.10;;;18.80;99.90;;;;;;5057593;28;20112;-86
2022/08/19 00:09:50;;;;;;;4.10;3.80;;;18.80;99.90;;;;;;5046550;28;20029;-86
2022/08/19 00:12:16;;;;;;;3.70;3.40;;;18.80;99.90;;;;;;5059142;28;20040;-86
2022/08/19 00:14:42;;;;;;;3.28;2.95;;;18.80;99.90;;;;;;5057638;28;20348;-86
2022/08/19 00:17:09;;;;;;;5.28;3.88;;;18.80;99.90;;;;;;5056512;28;20028;-86
2022/08/19 00:19:39;;;;;;;6.07;4.53;;;18.80;99.90;;;;;;5042500;28;20020;-85
2022/08/19 00:22:05;;;;;;;3.85;3.55;;;18.80;99.90;;;;;;5040020;28;20367;-86
2022/08/19 00:24:52;;;;;;;4.53;4.13;;;18.80;99.90;;;;;;5058336;28;20049;-86
2022/08/19 00:27:34;;;;;;;5.00;4.50;;;18.80;99.90;;;;;;5056731;28;20025;-86
2022/08/19 00:30:30;;;;;;;5.40;4.90;;;18.70;99.90;;;;;;5044889;28;20097;-86
2022/08/19 00:39:56;;;;;;;4.47;4.05;;;18.70;99.90;;;;;;4972610;28;20106;-86
2022/08/19 00:42:28;;;;;;;5.00;4.50;;;18.70;99.90;;;;;;4956218;28;20061;-87
2022/08/19 00:44:54;;;;;;;4.90;4.50;;;18.70;99.90;;;;;;4966083;29;20035;-85
2022/08/19 00:47:28;;;;;;;4.95;4.55;;;18.80;99.90;;;;;;5009312;28;20111;-85
2022/08/19 00:49:57;;;;;;;5.88;5.35;;;18.80;99.90;;;;;;5040877;28;20021;-85
2022/08/19 00:52:31;;;;;;;5.70;5.15;;;18.70;99.90;;;;;;5038324;28;20029;-85
2022/08/19 00:54:59;;;;;;;6.00;5.47;;;18.70;99.90;;;;;;5038425;28;20110;-85
2022/08/19 00:57:40;;;;;;;5.65;5.13;;;18.70;99.90;;;;;;5038303;28;20078;-85
2022/08/19 01:00:18;;;;;;;6.13;5.63;;;18.70;99.90;;;;;;5037662;28;20057;-84
2022/08/19 01:02:52;;;;;;;6.35;5.75;;;18.70;99.90;;;;;;5057585;28;20076;-85
2022/08/19 01:05:30;;;;;;;7.03;6.43;;;18.60;99.90;;;;;;5065060;28;20013;-85
2022/08/19 01:08:49;;;;;;;6.72;6.13;;;18.60;99.90;;;;;;5076833;28;20080;-85
2022/08/19 01:14:22;;;;;;;7.25;5.80;;;18.60;99.90;;;;;;5033989;28;20026;-85
2022/08/19 01:16:56;;;;;;;7.38;6.72;;;18.40;99.90;;;;;;5018720;28;20483;-85
2022/08/19 01:20:03;;;;;;;9.35;8.20;;;18.40;99.90;;;;;;5038606;28;20079;-85
2022/08/19 01:22:39;;;;;;;8.20;7.40;;;18.40;99.90;;;;;;5053843;28;20407;-86
2022/08/19 01:25:21;;;;;;;8.90;7.10;;;18.40;99.90;;;;;;5058702;28;20475;-86
2022/08/19 01:27:55;;;;;;;9.35;7.85;;;18.50;99.90;;;;;;5063578;28;20032;-85
2022/08/19 01:31:05;;;;;;;8.35;7.50;;;18.60;99.90;;;;;;5037947;28;20228;-85
2022/08/19 01:33:34;;;;;;;7.25;6.55;;;18.60;99.90;;;;;;5056094;28;20086;-85
2022/08/19 01:36:42;;;;;;;7.40;6.70;;;18.60;99.90;;;;;;5053919;28;20032;-85
2022/08/19 01:39:45;;;;;;;6.75;6.15;;;18.60;99.90;;;;;;5058642;28;20031;-85
2022/08/19 01:42:25;;;;;;;8.73;7.82;;;18.70;99.90;;;;;;5075031;28;20017;-85
2022/08/19 01:45:02;;;;;;;9.10;6.70;;;18.80;99.90;;;;;;5076457;28;20009;-85
2022/08/19 01:47:31;;;;;;;6.75;6.15;;;18.80;99.90;;;;;;5075605;28;20012;-85
2022/08/19 01:50:26;;;;;;;6.95;6.25;;;18.90;99.90;;;;;;5076062;28;20017;-86
2022/08/19 01:53:42;;;;;;;;;;;;;;;;;;;;;
2022/08/19 03:26:11;;;;;;;6.10;5.60;;;18.80;99.90;;;;;;5296692;22;20025;-83
2022/08/19 03:28:37;;;;;;;5.13;4.63;;;18.90;99.90;;;;;;5040139;28;20030;-83
2022/08/19 03:31:08;;;;;;;5.97;5.38;;;18.90;99.90;;;;;;5026441;28;20022;-84
2022/08/19 03:33:34;;;;;;;5.40;4.90;;;18.90;99.90;;;;;;5042671;28;20096;-84
2022/08/19 03:36:12;;;;;;;5.57;5.07;;;18.90;99.90;;;;;;5048307;28;20065;-83
2022/08/19 03:38:47;;;;;;;5.35;4.60;;;18.90;99.90;;;;;;5022936;28;20022;-84
2022/08/19 03:41:18;;;;;;;5.72;5.15;;;18.90;99.90;;;;;;5040017;28;20010;-84
2022/08/19 03:43:48;;;;;;;5.60;5.10;;;18.90;99.90;;;;;;5057044;28;20014;-84
2022/08/19 03:46:20;;;;;;;4.88;4.47;;;18.90;99.90;;;;;;5049361;28;20017;-81
2022/08/19 03:48:47;;;;;;;5.00;4.55;;;18.90;99.90;;;;;;5057133;28;20001;-83
2022/08/19 03:51:22;;;;;;;4.00;3.70;;;18.90;99.90;;;;;;5057226;28;20042;-84
2022/08/19 03:53:48;;;;;;;4.57;4.00;;;18.90;99.90;;;;;;5047202;28;20084;-83
2022/08/19 03:56:15;;;;;;;3.28;2.97;;;19.00;99.90;;;;;;5059924;28;20017;-83
2022/08/19 03:58:41;;;;;;;5.22;4.70;;;19.00;99.90;;;;;;5042531;28;20041;-84
2022/08/19 04:01:12;;;;;;;5.43;4.93;;;19.10;99.90;;;;;;5059642;28;20017;-84
2022/08/19 04:03:39;;;;;;;6.40;5.30;;;19.10;99.90;;;;;;5041672;28;20062;-84
2022/08/19 04:06:12;;;;;;;5.15;4.65;;;19.10;99.90;;;;;;5058958;28;20295;-83
2022/08/19 04:08:39;;;;;;;5.65;5.10;;;19.10;99.90;;;;;;5041401;28;20036;-84
2022/08/19 04:11:13;;;;;;;5.70;5.20;;;19.10;99.90;;;;;;5025553;28;20021;-83
2022/08/19 04:13:39;;;;;;;6.72;4.97;;;19.10;99.90;;;;;;5039437;28;20025;-84
2022/08/19 04:16:06;;;;;;;4.90;4.38;;;19.10;99.90;;;;;;5039350;28;20049;-83
2022/08/19 04:18:33;;;;;;;6.50;5.90;;;19.10;99.90;;;;;;5020925;28;20010;-83
2022/08/19 04:20:59;;;;;;;5.50;5.00;;;19.10;99.90;;;;;;5038791;28;20034;-84
2022/08/19 04:23:27;;;;;;;5.05;4.57;;;19.10;99.90;;;;;;5051715;28;20034;-84
2022/08/19 04:25:54;;;;;;;7.00;6.30;;;19.10;99.90;;;;;;5058005;28;20048;-83
2022/08/19 04:28:19;;;;;;;6.32;5.40;;;19.10;99.90;;;;;;5041796;28;20518;-83
2022/08/19 04:30:48;;;;;;;9.13;7.60;;;19.20;99.90;;;;;;5058471;28;20030;-83
2022/08/19 04:33:16;;;;;;;7.93;7.07;;;19.30;99.90;;;;;;5057370;28;20018;-83
2022/08/19 04:35:44;;;;;;;9.80;7.70;;;19.20;99.90;;;;;;5040435;28;20014;-83
2022/08/19 04:38:11;;;;;;;7.90;7.15;;;19.20;99.90;;;;;;5058377;28;20027;-84
2022/08/19 04:43:30;;;;;;;6.75;6.07;;;19.10;99.90;;;;;;5038923;28;20076;-86
2022/08/19 04:45:56;;;;;;;7.95;6.20;;;19.10;99.90;;;;;;5021860;28;20033;-85
2022/08/19 04:48:25;;;;;;;7.28;6.38;;;19.10;99.90;;;;;;5021705;28;20030;-85
2022/08/19 04:50:57;;;;;;;6.57;5.97;;;19.10;99.90;;;;;;5045476;28;20005;-86
2022/08/19 04:53:28;;;;;;;5.47;4.97;;;19.10;99.90;;;;;;5059267;28;20029;-86
2022/08/19 04:55:58;;;;;;;6.03;5.53;;;19.10;99.90;;;;;;5041904;28;20033;-86
2022/08/19 04:58:25;;;;;;;7.35;6.28;;;19.10;99.90;;;;;;5041659;28;20022;-86
2022/08/19 05:00:52;;;;;;;6.07;5.47;;;19.10;99.90;;;;;;5041694;28;20025;-86
2022/08/19 05:03:18;;;;;;;5.32;4.82;;;19.20;99.90;;;;;;5059172;28;20040;-84
2022/08/19 05:05:45;;;;;;;9.05;6.93;;;19.20;99.90;;;;;;5057760;28;20029;-87
2022/08/19 05:08:12;;;;;;;6.97;6.15;;;19.20;99.90;;;;;;5040606;28;20068;-85
2022/08/19 05:10:39;;;;;;;5.60;5.03;;;19.20;99.90;;;;;;5058190;28;20085;-84
2022/08/19 05:13:05;;;;;;;6.93;5.70;;;19.20;99.90;;;;;;5041992;28;20046;-85
2022/08/19 05:15:31;;;;;;;5.65;5.10;;;19.30;99.90;;;;;;5047015;28;20037;-86
2022/08/19 05:23:31;;;;;;;6.40;5.60;;;19.30;99.90;;;;;;5042185;28;20041;-85
2022/08/19 05:25:57;;;;;;;8.32;7.53;;;19.20;99.90;;;;;;5027555;28;20036;-85
2022/08/19 05:28:23;;;;;;;8.68;6.53;;;19.20;99.90;;;;;;5056394;28;20044;-84
2022/08/19 05:30:50;;;;;;;7.75;6.85;;;19.10;99.90;;;;;;5054373;28;20017;-83
2022/08/19 05:33:17;;;;;;;6.72;5.82;;;19.20;99.90;;;;;;5057488;28;20021;-83
2022/08/19 05:35:43;;;;;;;8.05;6.45;;;19.10;99.90;;;;;;5056826;28;20081;-84
2022/08/19 05:38:10;;;;;;;12.13;7.70;;;19.10;99.90;;;;;;5058396;28;20061;-85
2022/08/19 05:40:38;;;;;;;7.28;6.57;;;19.20;99.90;;;;;;5041172;28;20010;-85
2022/08/19 05:43:05;;;;;;;8.68;7.32;;;19.20;99.90;;;;;;5057972;28;20014;-82
2022/08/19 05:45:31;;;;;;;7.07;6.38;;;19.20;99.90;;;;;;5040604;28;20013;-83
2022/08/19 05:47:58;;;;;;;8.00;7.20;;;19.20;99.90;;;;;;5038180;28;20025;-83
2022/08/19 05:50:26;;;;;;;9.60;8.43;;;19.20;99.90;;;;;;5055352;28;20026;-83
2022/08/19 05:52:52;;;;;;;9.98;8.68;;;19.20;99.90;;;;;;5054528;28;20059;-81
2022/08/19 05:55:20;;;;;;;10.70;9.60;;;19.10;99.90;;;;;;5057581;28;20026;-84
2022/08/19 05:57:47;;;;;;;10.13;9.13;;;19.10;99.90;;;;;;5057240;28;20010;-84
2022/08/19 06:00:13;;;;;;;11.32;8.35;;;19.10;99.90;;;;;;5056747;28;20052;-82
2022/08/19 06:02:42;;;;;;;9.25;7.10;;;19.10;99.90;;;;;;5056802;28;20009;-82
2022/08/19 06:05:09;;;;;;;8.70;7.80;;;19.10;99.90;;;;;;5058091;28;20021;-82
2022/08/19 06:07:36;;;;;;;10.60;8.10;;;19.20;99.90;;;;;;5057710;28;20051;-83
2022/08/19 06:10:04;;;;;;;10.27;9.15;;;19.20;99.90;;;;;;5057458;28;20014;-83
2022/08/19 06:12:34;;;;;;;13.52;12.18;;;19.20;99.90;;;;;;5053556;28;20033;-81
2022/08/19 06:15:07;;;;;;;11.00;9.77;;;19.20;99.90;;;;;;5057412;28;20078;-82
2022/08/19 06:17:34;;;;;;;11.63;9.75;;;19.20;99.90;;;;;;5040447;28;20032;-82
2022/08/19 06:20:00;;;;;;;11.23;10.13;;;19.20;99.90;;;;;;5056963;28;20064;-81
2022/08/19 06:22:27;;;;;;;10.60;9.50;;;19.20;99.90;;;;;;5057064;28;20041;-83
2022/08/19 06:24:53;;;;;;;8.95;8.05;;;19.20;99.90;;;;;;5056561;28;20026;-82
2022/08/19 06:27:19;;;;;;;8.52;7.72;;;19.20;99.90;;;;;;5056802;28;20101;-82
2022/08/19 06:29:46;;;;;;;8.65;7.85;;;19.20;99.90;;;;;;5056612;28;20040;-81
2022/08/19 06:32:14;;;;;;;9.98;8.98;;;19.20;99.90;;;;;;5051685;28;20036;-83
2022/08/19 06:34:40;;;;;;;10.55;9.52;;;19.20;99.90;;;;;;5022405;28;20034;-81
2022/08/19 06:37:07;;;;;;;10.93;9.00;;;19.20;99.90;;;;;;5055448;28;20035;-83
2022/08/19 06:39:38;;;;;;;9.13;8.23;;;19.20;99.90;;;;;;5055238;28;20028;-81
2022/08/19 06:42:09;;;;;;;9.57;8.52;;;19.20;99.90;;;;;;5034126;28;20025;-82
2022/08/19 06:44:36;;;;;;;10.13;9.07;;;19.30;99.90;;;;;;5048908;28;20112;-82
2022/08/19 06:47:08;;;;;;;11.57;10.38;;;19.40;99.90;;;;;;5033146;28;20273;-83
2022/08/19 06:49:37;;;;;;;12.18;10.23;;;19.40;99.90;;;;;;5023329;28;20026;-83
2022/08/19 06:52:06;;;;;;;10.20;9.20;;;19.40;99.90;;;;;;5045001;28;20030;-84
2022/08/19 06:54:36;;;;;;;11.65;10.48;;;19.30;99.90;;;;;;5049779;28;20064;-82
2022/08/19 06:57:02;;;;;;;11.02;9.63;;;19.20;99.90;;;;;;5046420;28;20024;-83
2022/08/19 06:59:32;;;;;;;11.55;10.05;;;19.20;99.90;;;;;;5037710;28;20029;-81
2022/08/19 07:02:01;;;;;;;13.80;12.38;;;19.20;99.90;;;;;;5057950;28;20083;-81
2022/08/19 07:07:14;;;;;;;12.52;10.88;;;19.20;99.90;;;;;;5051666;28;20155;-81
2022/08/19 07:09:43;;;;;;;11.07;9.98;;;19.20;99.90;;;;;;5059550;28;20070;-81
2022/08/19 07:12:11;;;;;;;10.80;9.75;;;19.10;99.90;;;;;;5041641;28;20045;-83
2022/08/19 07:14:38;;;;;;;10.75;9.50;;;19.20;99.90;;;;;;5059385;28;20005;-82
2022/08/19 07:17:10;;;;;;;10.25;9.25;;;19.20;99.90;;;;;;5042679;28;20017;-84
2022/08/19 07:19:36;;;;;;;10.05;8.77;;;19.30;99.90;;;;;;5042962;28;20025;-82
2022/08/19 07:22:18;;;;;;;13.95;12.45;;;19.50;99.90;;;;;;5060497;28;20026;-81
2022/08/19 07:24:44;;;;;;;17.17;13.52;;;19.80;99.90;;;;;;5043533;28;20026;-83
2022/08/19 07:27:10;;;;;;;14.27;12.75;;;19.90;99.90;;;;;;5060281;28;20107;-84
2022/08/19 07:29:54;;;;;;;18.05;13.75;;;20.00;99.90;;;;;;5057237;28;20029;-83
2022/08/19 07:32:21;;;;;;;14.73;13.23;;;20.20;99.90;;;;;;5054766;28;20041;-82
2022/08/19 07:34:46;;;;;;;14.57;13.10;;;20.30;99.90;;;;;;5060055;28;20056;-84
2022/08/19 07:37:12;;;;;;;12.43;11.15;;;20.50;99.90;;;;;;5060838;28;20021;-81
2022/08/19 07:39:39;;;;;;;12.55;11.25;;;20.60;99.90;;;;;;5060619;28;20048;-83
2022/08/19 07:42:09;;;;;;;18.08;15.05;;;20.70;99.90;;;;;;5059229;28;20030;-81
2022/08/19 07:44:37;;;;;;;17.15;13.95;;;20.90;99.90;;;;;;5048056;28;20021;-80
2022/08/19 07:47:06;;;;;;;14.98;13.43;;;20.90;99.90;;;;;;5043142;28;20029;-82
2022/08/19 07:49:35;;;;;;;14.65;12.68;;;20.90;99.90;;;;;;5042460;28;20029;-84
2022/08/19 07:52:07;;;;;;;20.83;15.88;;;20.80;99.90;;;;;;5043034;28;20033;-82
2022/08/19 07:54:35;;;;;;;13.65;12.25;;;20.80;99.90;;;;;;5060279;28;20036;-84
2022/08/19 07:57:11;;;;;;;18.33;15.48;;;20.70;99.90;;;;;;5059808;28;20057;-86
2022/08/19 07:59:43;;;;;;;15.93;14.23;;;20.70;99.90;;;;;;5031900;28;20030;-86
2022/08/19 08:02:27;;;;;;;19.60;16.60;;;20.60;99.90;;;;;;5041751;28;20041;-85
2022/08/19 08:10:57;;;;;;;22.15;17.48;;;20.60;99.90;;;;;;5056953;28;20037;-85
2022/08/19 08:13:23;;;;;;;18.77;16.50;;;20.60;99.90;;;;;;5041246;28;20045;-85
2022/08/19 08:15:49;;;;;;;19.95;16.75;;;20.40;99.90;;;;;;5059552;28;20043;-85
2022/08/19 08:18:15;;;;;;;19.73;17.02;;;20.40;99.90;;;;;;5058427;28;20014;-85
2022/08/19 08:20:41;;;;;;;17.05;14.43;;;20.30;99.90;;;;;;5058888;28;20025;-84
2022/08/19 08:23:22;;;;;;;18.20;15.35;;;20.20;99.90;;;;;;5058056;28;20029;-83
2022/08/19 08:25:48;;;;;;;22.90;18.05;;;20.10;99.90;;;;;;5059593;28;20037;-84
2022/08/19 08:28:15;;;;;;;18.15;16.13;;;20.00;99.90;;;;;;5042121;28;20060;-85
2022/08/19 08:30:42;;;;;;;23.58;18.50;;;20.00;99.90;;;;;;5059654;28;20017;-83
2022/08/19 08:33:08;;;;;;;17.08;15.27;;;20.00;99.90;;;;;;5058989;28;20037;-85
2022/08/19 08:35:34;;;;;;;22.17;16.63;;;20.00;99.90;;;;;;5041628;28;20086;-82
2022/08/19 08:37:59;;;;;;;14.00;12.52;;;20.00;99.90;;;;;;5059304;28;20033;-85
2022/08/19 08:40:28;;;;;;;12.57;11.15;;;20.00;99.90;;;;;;5059077;28;20025;-85
2022/08/19 08:43:05;;;;;;;18.48;14.68;;;20.10;99.90;;;;;;5059115;28;20041;-84
2022/08/19 08:45:34;;;;;;;16.80;14.27;;;20.10;99.90;;;;;;5058940;28;20022;-84
2022/08/19 08:48:17;;;;;;;12.93;11.50;;;20.10;99.90;;;;;;5058573;28;20013;-83
2022/08/19 08:57:37;;;;;;;12.65;11.38;;;20.00;99.90;;;;;;4998821;28;20042;-84
2022/08/19 09:00:45;;;;;;;12.43;11.25;;;20.00;99.90;;;;;;5025898;28;20044;-84
2022/08/19 09:03:28;;;;;;;16.08;12.05;;;19.90;99.90;;;;;;5041308;28;20077;-83
2022/08/19 09:06:51;;;;;;;12.55;11.25;;;20.00;99.90;;;;;;5058558;28;20022;-84
2022/08/19 09:09:57;;;;;;;12.75;11.32;;;20.00;99.90;;;;;;4959539;28;20023;-83
2022/08/19 09:13:13;;;;;;;13.25;11.82;;;20.00;99.90;;;;;;5008026;28;20065;-84
2022/08/19 09:15:48;;;;;;;16.20;13.38;;;20.00;99.90;;;;;;5056763;28;20022;-83
2022/08/19 09:18:16;;;;;;;16.30;14.70;;;19.80;99.90;;;;;;5057761;28;20064;-83
2022/08/19 09:20:42;;;;;;;18.40;15.70;;;19.80;99.90;;;;;;5040933;28;20014;-84
2022/08/19 09:27:00;;;;;;;14.75;13.20;;;19.80;99.90;;;;;;5086486;22;20206;-83
2022/08/19 09:29:26;;;;;;;14.48;12.98;;;19.80;99.90;;;;;;5076638;28;20025;-84
2022/08/19 09:31:52;;;;;;;14.20;12.65;;;19.80;99.90;;;;;;5057057;28;20053;-84
2022/08/19 09:34:19;;;;;;;12.35;10.60;;;19.80;99.90;;;;;;5043501;28;20037;-83
2022/08/19 09:36:45;;;;;;;14.68;11.85;;;19.90;99.90;;;;;;5020017;28;20040;-83
2022/08/19 09:39:11;;;;;;;16.05;11.75;;;20.00;99.90;;;;;;5037665;28;20021;-83
2022/08/19 09:41:36;;;;;;;14.35;12.43;;;20.10;99.90;;;;;;5037689;28;20006;-84
2022/08/19 09:44:02;;;;;;;13.05;11.68;;;20.20;99.90;;;;;;5018444;28;20037;-84
2022/08/19 09:46:30;;;;;;;12.40;11.20;;;20.30;99.90;;;;;;5026986;28;20100;-84
2022/08/19 09:48:59;;;;;;;14.40;13.00;;;20.30;99.90;;;;;;5046026;28;20025;-83
2022/08/19 09:51:28;;;;;;;12.90;11.60;;;20.40;99.90;;;;;;5055058;28;20020;-83
2022/08/19 09:53:58;;;;;;;14.13;12.50;;;20.40;99.90;;;;;;5054376;28;20029;-83
2022/08/19 09:56:24;;;;;;;18.88;15.05;;;20.50;99.90;;;;;;5054901;28;20039;-83
2022/08/19 09:58:49;;;;;;;14.80;12.48;;;20.50;99.90;;;;;;5043108;28;20038;-83
2022/08/19 10:01:21;;;;;;;17.05;14.45;;;20.60;99.90;;;;;;5035459;28;20034;-83
2022/08/19 10:03:49;;;;;;;14.93;13.32;;;20.70;99.90;;;;;;5042958;28;20049;-83
2022/08/19 10:06:16;;;;;;;16.67;14.88;;;20.80;99.90;;;;;;5033348;28;20026;-83
2022/08/19 10:08:42;;;;;;;13.88;12.52;;;20.90;99.90;;;;;;5038771;28;20032;-84
2022/08/19 10:11:09;;;;;;;13.88;11.63;;;21.00;99.90;;;;;;5055547;28;20085;-83
2022/08/19 10:13:35;;;;;;;13.70;10.70;;;21.30;99.90;;;;;;5041933;28;20029;-84
2022/08/19 10:16:10;;;;;;;11.35;9.88;;;21.60;99.90;;;;;;5041123;28;20014;-83
2022/08/19 10:18:37;;;;;;;17.17;15.38;;;;;;;;;;5042278;28;20026;-84
2022/08/19 10:21:08;;;;;;;14.88;13.38;;;22.40;99.90;;;;;;5040158;28;20048;-84
2022/08/19 10:23:38;;;;;;;13.90;12.48;;;22.70;99.90;;;;;;5041020;28;20026;-84
2022/08/19 10:26:07;;;;;;;10.32;9.38;;;23.10;99.60;;;;;;5042107;28;20097;-84
2022/08/19 10:28:38;;;;;;;8.85;8.00;;;23.50;99.40;;;;;;5052842;28;20041;-84
2022/08/19 10:31:06;;;;;;;11.35;10.15;;;23.90;98.60;;;;;;5022772;28;20050;-84
2022/08/19 10:33:33;;;;;;;10.52;9.18;;;24.10;95.60;;;;;;5039316;28;20071;-83
2022/08/19 10:36:00;;;;;;;11.73;10.27;;;24.10;94.60;;;;;;5024503;28;20105;-83
2022/08/19 10:38:26;;;;;;;12.48;11.20;;;24.10;92.70;;;;;;5021899;28;20022;-83
2022/08/19 10:40:52;;;;;;;11.00;9.88;;;23.90;93.10;;;;;;5023102;28;20042;-83
2022/08/19 10:43:18;;;;;;;10.30;9.05;;;24.00;93.30;;;;;;5021040;28;20033;-83
2022/08/19 10:45:51;;;;;;;10.70;9.60;;;24.30;92.90;;;;;;5021677;28;20057;-83
2022/08/19 10:48:17;;;;;;;9.57;8.65;;;24.60;91.00;;;;;;5021131;28;20082;-84
2022/08/19 10:53:27;;;;;;;10.80;9.63;;;25.00;88.90;;;;;;5041190;28;20087;-82
2022/08/19 10:58:36;;;;;;;10.82;9.73;;;25.00;87.90;;;;;;5044513;28;20068;-84
2022/08/19 11:01:02;;;;;;;10.55;9.55;;;24.90;88.40;;;;;;5031700;28;20416;-84
2022/08/19 11:03:29;;;;;;;10.10;9.10;;;24.80;88.30;;;;;;5045585;28;20029;-84
2022/08/19 11:06:04;;;;;;;13.50;10.77;;;24.80;88.70;;;;;;5031444;28;20022;-84
2022/08/19 11:08:30;;;;;;;12.85;11.55;;;24.70;87.00;;;;;;5024267;28;20086;-84
2022/08/19 11:11:00;;;;;;;12.63;11.40;;;24.40;86.90;;;;;;5023711;28;20088;-84
2022/08/19 11:13:40;;;;;;;13.15;11.23;;;24.00;89.60;;;;;;5023635;28;20113;-83
2022/08/19 11:16:15;;;;;;;13.18;11.85;;;23.60;90.90;;;;;;5034929;28;20033;-83
2022/08/19 11:18:43;;;;;;;12.00;10.80;;;23.20;91.60;;;;;;5042338;28;20525;-84
2022/08/19 11:21:11;;;;;;;13.27;10.73;;;22.90;93.30;;;;;;5041922;28;20056;-83
2022/08/19 11:23:37;;;;;;;10.75;9.68;;;22.70;94.30;;;;;;5042309;28;20037;-83
2022/08/19 11:26:03;;;;;;;9.27;8.38;;;22.80;94.20;;;;;;5043896;28;20034;-83
2022/08/19 11:28:29;;;;;;;10.07;9.10;;;22.90;94.60;;;;;;5050084;28;20492;-83
2022/08/19 11:30:54;;;;;;;11.82;10.63;;;23.10;93.70;;;;;;5068063;28;20078;-82
2022/08/19 11:33:20;;;;;;;10.82;9.82;;;23.10;93.20;;;;;;5044944;28;20029;-82
2022/08/19 11:35:46;;;;;;;9.85;8.88;;;22.90;93.40;;;;;;5044912;28;20033;-83
2022/08/19 11:38:12;;;;;;;7.75;6.63;;;22.90;94.40;;;;;;5047144;28;20097;-83
2022/08/19 11:40:37;;;;;;;7.78;7.07;;;23.00;94.90;;;;;;5061257;28;20388;-83
2022/08/19 11:43:03;;;;;;;6.63;6.03;;;23.40;93.00;;;;;;5061388;28;20049;-84
2022/08/19 11:45:30;;;;;;;6.68;6.03;;;23.70;92.80;;;;;;5048719;28;20032;-83
2022/08/19 11:47:56;;;;;;;5.57;5.07;;;24.10;91.20;;;;;;5027284;28;20026;-83
2022/08/19 11:50:23;;;;;;;4.53;4.20;;;24.30;90.10;;;;;;5027472;28;20025;-83
2022/08/19 11:52:49;;;;;;;5.13;4.63;;;24.40;90.00;;;;;;5027682;28;20030;-83
2022/08/19 11:55:15;;;;;;;4.90;4.50;;;24.40;88.10;;;;;;5024649;28;20030;-82
2022/08/19 11:57:43;;;;;;;4.28;3.92;;;24.20;89.60;;;;;;5025176;28;20041;-82
2022/08/19 12:00:12;;;;;;;3.70;3.40;;;23.90;88.80;;;;;;5027626;28;20029;-83
2022/08/19 12:02:37;;;;;;;3.15;2.90;;;23.60;90.30;;;;;;5051199;28;20017;-84
2022/08/19 12:05:04;;;;;;;3.17;2.80;;;23.40;90.20;;;;;;5027803;28;20037;-83
2022/08/19 12:07:32;;;;;;;3.67;2.80;;;23.20;91.30;;;;;;5041285;28;20037;-84
2022/08/19 12:09:59;;;;;;;2.90;2.50;;;23.10;91.30;;;;;;5039681;28;20105;-84
2022/08/19 12:12:26;;;;;;;2.50;2.40;;;23.00;91.80;;;;;;5046646;28;20033;-83
2022/08/19 12:14:56;;;;;;;2.15;1.90;;;23.00;92.30;;;;;;5038683;28;20430;-83
2022/08/19 12:17:23;;;;;;;2.13;1.88;;;23.20;92.20;;;;;;5044212;28;20022;-83
2022/08/19 12:19:49;;;;;;;4.03;2.28;;;23.40;91.40;;;;;;5048886;28;20022;-83
2022/08/19 12:22:14;;;;;;;2.00;1.80;;;23.60;90.50;;;;;;5038910;28;20029;-83
2022/08/19 12:24:40;;;;;;;2.00;1.90;;;23.60;90.30;;;;;;5035083;28;20041;-84
2022/08/19 12:27:06;;;;;;;1.45;1.38;;;23.50;90.70;;;;;;5033482;28;20533;-82
2022/08/19 12:29:32;;;;;;;1.40;1.38;;;23.40;90.90;;;;;;5017824;28;20056;-83
2022/08/19 12:32:01;;;;;;;1.58;1.40;;;23.40;91.30;;;;;;5038509;28;20026;-84
2022/08/19 12:34:32;;;;;;;1.25;1.20;;;23.50;90.10;;;;;;5038919;28;20030;-82
2022/08/19 12:37:00;;;;;;;0.95;0.95;;;23.50;90.50;;;;;;5015104;28;20028;-83
2022/08/19 12:39:26;;;;;;;0.98;0.98;;;23.30;90.60;;;;;;5013151;28;20116;-83
2022/08/19 12:41:52;;;;;;;1.10;1.00;;;23.30;90.80;;;;;;5034553;28;20084;-83
2022/08/19 12:44:18;;;;;;;2.40;1.42;;;23.40;90.10;;;;;;5028121;28;20045;-83
2022/08/19 12:46:44;;;;;;;1.33;1.33;;;23.50;90.80;;;;;;5027297;28;20018;-83
2022/08/19 12:49:10;;;;;;;0.93;0.93;;;23.60;90.00;;;;;;5031804;28;20571;-83
2022/08/19 12:51:36;;;;;;;1.45;1.35;;;23.80;90.10;;;;;;5034901;28;20021;-83
2022/08/19 12:54:02;;;;;;;1.40;1.40;;;24.10;88.80;;;;;;5013159;28;20033;-83
2022/08/19 12:56:27;;;;;;;1.20;1.15;;;24.50;86.50;;;;;;5042457;28;20037;-84
2022/08/19 12:58:53;;;;;;;1.25;1.15;;;24.90;85.90;;;;;;5027867;28;20094;-84
2022/08/19 13:01:20;;;;;;;1.00;1.00;;;25.50;83.60;;;;;;5026525;28;20026;-84
2022/08/19 13:03:46;;;;;;;1.67;1.30;;;25.70;81.60;;;;;;5015878;28;20610;-83
2022/08/19 13:06:12;;;;;;;1.10;1.10;;;25.70;78.80;;;;;;5043654;28;20025;-83
2022/08/19 13:08:38;;;;;;;1.58;1.48;;;25.50;78.70;;;;;;5041902;28;20021;-83
2022/08/19 13:11:13;;;;;;;2.15;1.40;;;25.40;78.70;;;;;;5037167;28;20108;-84
2022/08/19 13:13:41;;;;;;;2.28;1.10;;;25.60;77.90;;;;;;5047842;28;20034;-84
2022/08/19 13:16:08;;;;;;;1.63;1.50;;;25.80;77.70;;;;;;5045631;28;20034;-83
2022/08/19 13:18:34;;;;;;;2.50;1.25;;;26.20;76.50;;;;;;5044548;28;20115;-82
2022/08/19 13:21:08;;;;;;;1.75;1.65;;;26.50;75.10;;;;;;5045005;28;20037;-83
2022/08/19 13:23:41;;;;;;;1.05;1.00;;;26.70;73.80;;;;;;5025020;28;20029;-84
2022/08/19 13:26:07;;;;;;;0.90;0.90;;;27.00;71.80;;;;;;5049190;28;20059;-81
2022/08/19 13:34:06;;;;;;;1.45;0.98;;;26.10;73.20;;;;;;5057518;28;20041;-82
2022/08/19 13:36:33;;;;;;;1.10;1.10;;;25.90;74.30;;;;;;5057991;28;20089;-81
2022/08/19 13:38:58;;;;;;;0.95;0.95;;;26.00;74.50;;;;;;5058001;28;20009;-82
2022/08/19 13:41:25;;;;;;;1.00;1.00;;;26.20;73.90;;;;;;5057243;28;20021;-83
2022/08/19 13:43:51;;;;;;;1.23;1.00;;;26.10;74.10;;;;;;5057795;28;20013;-81
2022/08/19 13:46:16;;;;;;;2.28;1.10;;;25.90;74.80;;;;;;5057822;28;20022;-81
2022/08/19 13:48:42;;;;;;;1.75;1.65;;;25.80;76.50;;;;;;5038752;28;20319;-81
2022/08/19 13:51:11;;;;;;;2.00;1.52;;;25.70;76.60;;;;;;5054107;28;20041;-83
2022/08/19 13:53:38;;;;;;;1.90;1.80;;;26.00;76.50;;;;;;5036635;28;20034;-83
2022/08/19 13:56:09;;;;;;;1.75;1.65;;;26.10;74.90;;;;;;5022098;28;20025;-82
2022/08/19 13:58:35;;;;;;;1.50;1.40;;;25.70;75.90;;;;;;5021188;28;20084;-83
2022/08/19 14:01:01;;;;;;;2.08;1.98;;;25.10;78.10;;;;;;5024161;28;20068;-83
2022/08/19 14:03:27;;;;;;;2.05;1.95;;;24.80;80.10;;;;;;5032154;28;20087;-84
2022/08/19 14:05:53;;;;;;;1.88;1.77;;;24.60;80.90;;;;;;5041897;28;20040;-84
2022/08/19 14:08:19;;;;;;;1.98;1.88;;;24.60;80.60;;;;;;5043998;28;20014;-84
2022/08/19 14:10:45;;;;;;;2.00;1.75;;;24.50;80.70;;;;;;5046202;28;20137;-85
2022/08/19 14:13:18;;;;;;;1.60;1.50;;;24.40;81.80;;;;;;5042995;28;20093;-83
2022/08/19 14:15:45;;;;;;;2.08;1.98;;;24.30;83.00;;;;;;5043790;28;20026;-85
2022/08/19 14:18:11;;;;;;;2.30;2.20;;;24.40;82.60;;;;;;5051365;28;20032;-83
2022/08/19 14:20:37;;;;;;;2.38;1.92;;;24.40;82.00;;;;;;5054907;28;20018;-83
2022/08/19 14:23:05;;;;;;;2.40;2.20;;;24.20;82.80;;;;;;5048391;28;20026;-82
2022/08/19 14:25:31;;;;;;;2.33;2.20;;;24.50;83.30;;;;;;5050977;28;20095;-85
2022/08/19 14:27:58;;;;;;;1.85;1.75;;;24.90;81.30;;;;;;5043705;28;20064;-85
2022/08/19 14:30:28;;;;;;;2.20;2.00;;;25.40;79.80;;;;;;5043726;28;20059;-85
2022/08/19 14:33:00;;;;;;;2.97;2.78;;;25.60;76.90;;;;;;5018749;28;20034;-83
2022/08/19 14:35:30;;;;;;;2.15;2.05;;;25.20;77.50;;;;;;5022505;28;20424;-85
2022/08/19 14:37:57;;;;;;;2.78;2.58;;;24.80;79.60;;;;;;5021523;28;20025;-85
2022/08/19 14:40:26;;;;;;;3.97;3.03;;;24.40;80.90;;;;;;5024085;28;20030;-85
2022/08/19 14:42:58;;;;;;;2.95;2.75;;;24.10;82.80;;;;;;5022834;28;20109;-84
2022/08/19 14:45:26;;;;;;;2.70;2.50;;;23.90;84.30;;;;;;5023449;28;20021;-83
2022/08/19 14:47:52;;;;;;;2.17;2.00;;;23.80;84.20;;;;;;5021799;28;20022;-84
2022/08/19 14:50:19;;;;;;;2.15;2.05;;;23.90;84.60;;;;;;5022637;28;20032;-85
2022/08/19 14:52:47;;;;;;;2.85;2.65;;;23.90;84.30;;;;;;5004701;28;20034;-83
2022/08/19 14:55:14;;;;;;;2.30;2.10;;;23.60;84.50;;;;;;5032952;28;20010;-83
2022/08/19 14:57:43;;;;;;;1.77;1.67;;;23.40;85.60;;;;;;5041741;28;20045;-84
2022/08/19 15:00:12;;;;;;;2.60;2.40;;;23.20;87.10;;;;;;5042748;28;20026;-82
2022/08/19 15:02:39;;;;;;;2.42;2.22;;;23.00;88.30;;;;;;5028377;28;20025;-82
2022/08/19 15:05:05;;;;;;;2.53;2.30;;;22.80;89.50;;;;;;5029727;28;20068;-82
2022/08/19 15:07:31;;;;;;;1.98;1.88;;;22.80;89.60;;;;;;5032289;28;20017;-83
2022/08/19 15:09:57;;;;;;;2.30;2.20;;;23.00;89.10;;;;;;5031740;28;20133;-83
2022/08/19 15:12:23;;;;;;;2.55;2.35;;;23.30;87.80;;;;;;5029886;28;20129;-84
2022/08/19 15:14:53;;;;;;;2.15;2.05;;;23.60;86.50;;;;;;5030397;28;20096;-82